Time;durP1;ratioP1;P1;durP2;ratioP2;P2;SDS_P1;SDS_P2;PMS_P1;PMS_P2;Temp;Humidity;BMP_temperature;BMP_pressure;BME280_temperature;BME280_humidity;BME280_pressure;Samples;Min_cycle;Max_cycle;Signal;HPM_P1;HPM_P2
2023/08/22 00:02:09;;;;;;;7.27;4.67;;;21.30;99.90;;;;;;5089660;28;20844;-66
2023/08/22 00:04:36;;;;;;;4.87;4.47;;;21.30;99.90;;;;;;5089201;28;20459;-66
2023/08/22 00:07:02;;;;;;;4.80;4.40;;;21.30;99.90;;;;;;5089381;28;20821;-66
2023/08/22 00:09:31;;;;;;;4.27;3.87;;;21.20;99.90;;;;;;5090284;28;20441;-67
2023/08/22 00:11:57;;;;;;;5.77;5.17;;;21.20;99.90;;;;;;5089847;28;20452;-66
2023/08/22 00:14:24;;;;;;;4.40;4.10;;;21.20;99.90;;;;;;5089899;28;20488;-66
2023/08/22 00:16:51;;;;;;;5.93;5.33;;;21.20;99.90;;;;;;5089210;28;20456;-66
2023/08/22 00:19:18;;;;;;;5.70;5.30;;;21.20;99.90;;;;;;5089713;28;20492;-67
2023/08/22 00:21:45;;;;;;;4.67;4.37;;;21.10;99.90;;;;;;5090211;28;20506;-66
2023/08/22 00:24:11;;;;;;;5.20;4.83;;;21.10;99.90;;;;;;5088747;28;21116;-66
2023/08/22 00:26:40;;;;;;;4.50;4.20;;;21.10;99.90;;;;;;5089112;28;20458;-66
2023/08/22 00:29:07;;;;;;;5.10;4.00;;;21.10;99.90;;;;;;5089690;28;20544;-66
2023/08/22 00:31:34;;;;;;;8.93;4.87;;;21.10;99.90;;;;;;5089618;28;20538;-66
2023/08/22 00:34:02;;;;;;;5.13;4.63;;;21.10;99.90;;;;;;5089504;28;20555;-66
2023/08/22 00:36:29;;;;;;;4.80;4.40;;;21.00;99.90;;;;;;5088828;28;20460;-66
2023/08/22 00:38:55;;;;;;;6.80;4.97;;;21.00;99.90;;;;;;5089591;28;20922;-66
2023/08/22 00:41:22;;;;;;;4.50;4.20;;;21.00;99.90;;;;;;5089340;28;21247;-66
2023/08/22 00:43:50;;;;;;;5.67;5.27;;;21.00;99.90;;;;;;5089416;28;20476;-66
2023/08/22 00:46:20;;;;;;;8.57;4.63;;;21.00;99.90;;;;;;5088769;28;20449;-66
2023/08/22 00:48:47;;;;;;;5.73;5.13;;;21.00;99.90;;;;;;5087538;28;20499;-66
2023/08/22 00:51:17;;;;;;;5.00;4.60;;;20.90;99.90;;;;;;5083666;28;20468;-66
2023/08/22 00:53:44;;;;;;;3.80;3.50;;;20.90;99.90;;;;;;5070455;28;20552;-66
2023/08/22 00:56:11;;;;;;;5.20;4.80;;;20.90;99.90;;;;;;5068143;28;20544;-66
2023/08/22 00:58:39;;;;;;;4.93;4.30;;;20.90;99.90;;;;;;5068767;28;21027;-66
2023/08/22 01:01:08;;;;;;;4.70;4.40;;;20.90;99.90;;;;;;5068806;28;20456;-66
2023/08/22 01:03:35;;;;;;;4.30;3.97;;;20.80;99.90;;;;;;5068723;28;20482;-66
2023/08/22 01:06:09;;;;;;;4.97;4.57;;;20.80;99.90;;;;;;5068265;28;20453;-66
2023/08/22 01:08:39;;;;;;;5.43;4.97;;;20.80;99.90;;;;;;5069071;28;20531;-66
2023/08/22 01:11:14;;;;;;;5.10;4.70;;;20.70;99.90;;;;;;5069059;28;20462;-66
2023/08/22 01:13:43;;;;;;;5.80;4.30;;;20.70;99.90;;;;;;5068941;28;20476;-66
2023/08/22 01:16:12;;;;;;;4.70;4.37;;;20.70;99.90;;;;;;5068232;28;20453;-66
2023/08/22 01:18:41;;;;;;;4.50;4.20;;;20.70;99.90;;;;;;5068749;28;20498;-66
2023/08/22 01:21:07;;;;;;;5.17;4.80;;;20.70;99.90;;;;;;5068426;28;20453;-66
2023/08/22 01:23:36;;;;;;;5.60;4.80;;;20.70;99.90;;;;;;5068503;28;20561;-66
2023/08/22 01:26:03;;;;;;;4.13;3.93;;;20.60;99.90;;;;;;5066511;28;20954;-66
2023/08/22 01:28:36;;;;;;;6.10;5.10;;;20.60;99.90;;;;;;5068409;28;20457;-66
2023/08/22 01:31:12;;;;;;;5.00;4.60;;;20.60;99.90;;;;;;5068105;28;20538;-66
2023/08/22 01:33:47;;;;;;;5.40;5.07;;;20.60;99.90;;;;;;5068198;28;20554;-66
2023/08/22 01:36:16;;;;;;;4.80;4.50;;;20.50;99.90;;;;;;5067531;28;20460;-66
2023/08/22 01:38:46;;;;;;;4.93;4.43;;;20.50;99.90;;;;;;5068549;28;20493;-66
2023/08/22 01:41:13;;;;;;;4.80;4.50;;;20.50;99.90;;;;;;5068156;28;20449;-66
2023/08/22 01:43:43;;;;;;;8.23;4.80;;;20.50;99.90;;;;;;5068143;28;20548;-66
2023/08/22 01:46:10;;;;;;;5.53;5.03;;;20.50;99.90;;;;;;5067410;28;20537;-65
2023/08/22 01:48:37;;;;;;;5.20;4.70;;;20.40;99.90;;;;;;5068163;28;20839;-66
2023/08/22 01:51:05;;;;;;;4.73;4.43;;;20.40;99.90;;;;;;5068021;28;20459;-66
2023/08/22 01:53:31;;;;;;;5.03;4.67;;;20.40;99.90;;;;;;5068132;28;20839;-66
2023/08/22 01:56:00;;;;;;;4.80;4.40;;;20.40;99.90;;;;;;5067218;28;20447;-66
2023/08/22 01:58:27;;;;;;;7.27;5.97;;;20.30;99.90;;;;;;5067981;28;20488;-65
2023/08/22 02:00:54;;;;;;;8.73;5.07;;;20.40;99.90;;;;;;5067938;28;20539;-66
2023/08/22 02:03:21;;;;;;;4.30;4.07;;;20.30;99.90;;;;;;5067794;28;20560;-65
2023/08/22 02:05:48;;;;;;;5.70;4.70;;;20.30;99.90;;;;;;5068149;28;20454;-66
2023/08/22 02:08:15;;;;;;;6.43;4.70;;;20.30;99.90;;;;;;5067885;28;20924;-66
2023/08/22 02:10:42;;;;;;;5.10;4.80;;;20.30;99.90;;;;;;5067920;28;20456;-66
2023/08/22 02:13:10;;;;;;;5.40;4.83;;;20.20;99.90;;;;;;5067796;28;20866;-66
2023/08/22 02:15:37;;;;;;;5.33;4.83;;;20.20;99.90;;;;;;5067823;28;20450;-66
2023/08/22 02:18:04;;;;;;;6.77;4.70;;;20.20;99.90;;;;;;5068153;28;20828;-66
2023/08/22 02:20:31;;;;;;;6.50;4.40;;;20.20;99.90;;;;;;5074424;28;20962;-66
2023/08/22 02:22:58;;;;;;;5.67;5.27;;;20.20;99.90;;;;;;5074561;28;20472;-66
2023/08/22 02:25:25;;;;;;;4.73;4.43;;;20.20;99.90;;;;;;5073278;28;20451;-66
2023/08/22 02:27:52;;;;;;;8.50;4.70;;;20.10;99.90;;;;;;5073952;28;20542;-66
2023/08/22 02:30:21;;;;;;;5.30;4.90;;;20.10;99.90;;;;;;5074291;28;20481;-66
2023/08/22 02:32:48;;;;;;;6.23;5.43;;;20.10;99.90;;;;;;5091077;28;20476;-65
2023/08/22 02:35:15;;;;;;;5.33;4.83;;;20.10;99.90;;;;;;5094803;28;20454;-66
2023/08/22 02:37:42;;;;;;;4.80;4.50;;;20.10;99.90;;;;;;5093783;28;20956;-65
2023/08/22 02:40:10;;;;;;;7.77;4.83;;;20.10;99.90;;;;;;5094382;28;20485;-65
2023/08/22 02:42:37;;;;;;;4.90;4.30;;;20.10;99.90;;;;;;5094363;28;20471;-65
2023/08/22 02:45:04;;;;;;;4.90;4.60;;;20.10;99.90;;;;;;5094480;28;20451;-65
2023/08/22 02:47:33;;;;;;;5.80;5.30;;;20.00;99.90;;;;;;5093591;28;20538;-66
2023/08/22 02:50:00;;;;;;;6.30;5.70;;;20.00;99.90;;;;;;5094195;28;20447;-65
2023/08/22 02:52:26;;;;;;;5.30;4.90;;;20.00;99.90;;;;;;5094235;28;20562;-66
2023/08/22 02:54:53;;;;;;;5.00;4.60;;;20.00;99.90;;;;;;5094439;28;20538;-66
2023/08/22 02:57:20;;;;;;;6.20;5.20;;;20.00;99.90;;;;;;5093622;28;20469;-65
2023/08/22 02:59:47;;;;;;;7.43;5.07;;;20.00;99.90;;;;;;5094053;28;20492;-66
2023/08/22 03:02:14;;;;;;;5.13;4.70;;;20.00;99.90;;;;;;5094155;28;20481;-66
2023/08/22 03:04:42;;;;;;;5.87;5.43;;;19.90;99.90;;;;;;5094253;28;20832;-65
2023/08/22 03:07:09;;;;;;;6.07;5.33;;;19.90;99.90;;;;;;5093333;28;20459;-66
2023/08/22 03:09:37;;;;;;;6.17;5.57;;;19.90;99.90;;;;;;5093927;28;20546;-66
2023/08/22 03:12:05;;;;;;;6.67;6.00;;;19.90;99.90;;;;;;5093834;28;21164;-66
2023/08/22 03:14:32;;;;;;;7.37;6.77;;;19.90;99.90;;;;;;5094016;28;20456;-66
2023/08/22 03:16:59;;;;;;;6.30;5.63;;;19.90;99.90;;;;;;5093411;28;20541;-66
2023/08/22 03:19:26;;;;;;;7.60;5.10;;;19.90;99.90;;;;;;5094005;28;20493;-65
2023/08/22 03:21:54;;;;;;;6.00;5.50;;;19.80;99.90;;;;;;5094472;28;20446;-65
2023/08/22 03:24:21;;;;;;;6.10;5.70;;;19.80;99.90;;;;;;5092897;28;20452;-65
2023/08/22 03:26:47;;;;;;;5.77;5.37;;;19.80;99.90;;;;;;5089919;28;20477;-66
2023/08/22 03:29:14;;;;;;;5.60;5.20;;;19.80;99.90;;;;;;5093341;28;21022;-66
2023/08/22 03:31:41;;;;;;;6.20;5.70;;;19.70;99.90;;;;;;5089904;28;20466;-66
2023/08/22 03:34:08;;;;;;;6.50;5.90;;;19.70;99.90;;;;;;5090644;28;20467;-66
2023/08/22 03:36:35;;;;;;;6.73;6.17;;;19.70;99.90;;;;;;5090095;28;20450;-66
2023/08/22 03:39:03;;;;;;;6.87;6.17;;;19.70;99.90;;;;;;5089858;28;20487;-65
2023/08/22 03:41:30;;;;;;;7.30;5.20;;;19.70;99.90;;;;;;5090533;28;20451;-66
2023/08/22 03:43:57;;;;;;;6.20;5.40;;;19.70;99.90;;;;;;5090332;28;20474;-65
2023/08/22 03:46:24;;;;;;;6.80;5.30;;;19.70;99.90;;;;;;5089940;28;20452;-65
2023/08/22 03:48:51;;;;;;;6.23;5.60;;;19.70;99.90;;;;;;5089199;28;20454;-66
2023/08/22 03:51:18;;;;;;;6.10;5.60;;;19.60;99.90;;;;;;5073278;28;21227;-65
2023/08/22 03:53:44;;;;;;;5.90;5.40;;;19.60;99.90;;;;;;5081668;28;20485;-66
2023/08/22 03:56:12;;;;;;;6.50;5.90;;;19.60;99.90;;;;;;5086377;28;20457;-67
2023/08/22 03:58:39;;;;;;;6.57;6.07;;;19.60;99.90;;;;;;5070013;28;21125;-66
2023/08/22 04:01:06;;;;;;;7.10;6.60;;;19.60;99.90;;;;;;5070203;28;20449;-66
2023/08/22 04:03:33;;;;;;;5.37;4.97;;;19.60;99.90;;;;;;5069817;28;20559;-65
2023/08/22 04:06:03;;;;;;;6.70;6.13;;;19.60;99.90;;;;;;5069252;28;20451;-65
2023/08/22 04:08:30;;;;;;;6.43;5.83;;;19.60;99.90;;;;;;5069526;28;20444;-66
2023/08/22 04:10:57;;;;;;;6.60;6.00;;;19.50;99.90;;;;;;5069911;28;20450;-66
2023/08/22 04:13:25;;;;;;;6.43;5.90;;;19.50;99.90;;;;;;5069675;28;20554;-66
2023/08/22 04:15:52;;;;;;;7.37;6.43;;;19.50;99.90;;;;;;5069095;28;20444;-66
2023/08/22 04:18:19;;;;;;;7.13;5.70;;;19.50;99.90;;;;;;5069364;28;20444;-66
2023/08/22 04:20:46;;;;;;;7.20;6.50;;;19.50;99.90;;;;;;5069536;28;20495;-65
2023/08/22 04:23:12;;;;;;;6.50;5.80;;;19.50;99.90;;;;;;5069632;28;20474;-65
2023/08/22 04:25:39;;;;;;;6.73;5.60;;;19.50;99.90;;;;;;5068387;28;20831;-66
2023/08/22 04:28:06;;;;;;;5.20;4.90;;;19.50;99.90;;;;;;5068657;28;20439;-66
2023/08/22 04:30:34;;;;;;;5.40;5.00;;;19.50;99.90;;;;;;5069435;28;20542;-66
2023/08/22 04:33:01;;;;;;;6.90;5.73;;;19.50;99.90;;;;;;5069579;28;20462;-65
2023/08/22 04:35:29;;;;;;;5.27;4.87;;;19.50;99.90;;;;;;5069383;28;20443;-66
2023/08/22 04:37:56;;;;;;;7.10;5.50;;;19.50;99.90;;;;;;5068916;28;20459;-65
2023/08/22 04:40:23;;;;;;;5.20;4.70;;;19.50;99.90;;;;;;5069072;28;20491;-66
2023/08/22 04:42:50;;;;;;;6.03;5.43;;;19.50;99.90;;;;;;5068868;28;20474;-66
2023/08/22 04:45:17;;;;;;;5.00;4.60;;;19.50;99.90;;;;;;5069228;28;20455;-66
2023/08/22 04:47:45;;;;;;;5.93;5.40;;;19.50;99.90;;;;;;5068612;28;20584;-66
2023/08/22 04:50:12;;;;;;;6.70;5.67;;;19.50;99.90;;;;;;5069413;28;20475;-66
2023/08/22 04:52:39;;;;;;;5.93;5.27;;;19.50;99.90;;;;;;5068886;28;20555;-66
2023/08/22 04:55:06;;;;;;;6.50;5.90;;;19.50;99.90;;;;;;5068765;28;20451;-65
2023/08/22 04:57:33;;;;;;;4.50;4.10;;;19.60;99.90;;;;;;5068236;28;20449;-66
2023/08/22 05:00:00;;;;;;;5.60;5.10;;;19.60;99.90;;;;;;5069108;28;20491;-66
2023/08/22 05:02:28;;;;;;;5.60;5.17;;;19.60;99.90;;;;;;5068938;28;20471;-66
2023/08/22 05:04:56;;;;;;;5.87;5.00;;;19.60;99.90;;;;;;5069113;28;20495;-66
2023/08/22 05:07:23;;;;;;;6.43;5.93;;;19.60;99.90;;;;;;5067986;28;20454;-66
2023/08/22 05:09:50;;;;;;;5.90;5.43;;;19.60;99.90;;;;;;5068333;28;20537;-66
2023/08/22 05:12:17;;;;;;;8.00;6.30;;;19.60;99.90;;;;;;5068321;28;21017;-66
2023/08/22 05:14:44;;;;;;;6.80;4.97;;;19.60;99.90;;;;;;5087147;28;20467;-65
2023/08/22 05:17:10;;;;;;;6.23;5.63;;;19.60;99.90;;;;;;5087901;28;20538;-66
2023/08/22 05:19:37;;;;;;;6.53;5.43;;;19.60;99.90;;;;;;5088614;28;21010;-66
2023/08/22 05:22:06;;;;;;;5.93;5.43;;;19.70;99.90;;;;;;5088390;28;20455;-66
2023/08/22 05:24:33;;;;;;;5.47;5.07;;;19.70;99.90;;;;;;5087482;28;21027;-66
2023/08/22 05:26:59;;;;;;;5.53;5.00;;;19.70;99.90;;;;;;5087869;28;20529;-66
2023/08/22 05:29:27;;;;;;;6.67;6.13;;;19.70;99.90;;;;;;5088529;28;20534;-65
2023/08/22 05:31:54;;;;;;;6.37;5.87;;;19.80;99.90;;;;;;5088346;28;20459;-66
2023/08/22 05:34:21;;;;;;;5.40;5.00;;;19.80;99.90;;;;;;5088523;28;20529;-66
2023/08/22 05:36:48;;;;;;;6.50;5.93;;;19.80;99.90;;;;;;5087849;28;21177;-66
2023/08/22 05:39:16;;;;;;;6.07;5.37;;;19.90;99.90;;;;;;5088371;28;20447;-66
2023/08/22 05:41:43;;;;;;;6.20;5.70;;;19.90;99.90;;;;;;5088441;28;20443;-66
2023/08/22 05:44:09;;;;;;;7.17;6.43;;;19.90;99.90;;;;;;5088156;28;20558;-66
2023/08/22 05:46:36;;;;;;;5.47;5.07;;;20.00;99.90;;;;;;5087350;28;20447;-66
2023/08/22 05:49:03;;;;;;;6.60;6.00;;;20.00;99.90;;;;;;5087768;28;20450;-66
2023/08/22 05:51:30;;;;;;;5.97;5.37;;;20.00;99.90;;;;;;5088312;28;20450;-66
2023/08/22 05:53:57;;;;;;;5.53;5.13;;;20.00;99.90;;;;;;5088065;28;20471;-66
2023/08/22 05:56:25;;;;;;;5.40;5.00;;;20.10;99.90;;;;;;5087557;28;20446;-66
2023/08/22 05:58:52;;;;;;;6.07;5.60;;;20.10;99.90;;;;;;5088317;28;20454;-66
2023/08/22 06:01:18;;;;;;;6.30;5.70;;;20.20;99.90;;;;;;5087967;28;20602;-66
2023/08/22 06:03:45;;;;;;;6.50;6.00;;;20.30;99.90;;;;;;5088183;28;20553;-66
2023/08/22 06:06:12;;;;;;;6.37;5.83;;;20.40;99.90;;;;;;5087299;28;20622;-66
2023/08/22 06:08:39;;;;;;;6.10;5.60;;;20.50;99.90;;;;;;5087895;28;20539;-66
2023/08/22 06:11:06;;;;;;;6.33;5.83;;;20.70;99.90;;;;;;5087951;28;20534;-66
2023/08/22 06:13:34;;;;;;;7.00;6.40;;;20.90;99.90;;;;;;5087809;28;20990;-66
2023/08/22 06:16:01;;;;;;;6.60;6.10;;;21.00;99.90;;;;;;5087111;28;20453;-65
2023/08/22 06:18:28;;;;;;;6.67;5.93;;;21.20;99.90;;;;;;5088101;28;20459;-66
2023/08/22 06:20:59;;;;;;;6.53;5.83;;;21.40;99.90;;;;;;5087842;28;20825;-66
2023/08/22 06:23:26;;;;;;;9.30;5.90;;;21.60;99.90;;;;;;5087696;28;20473;-66
2023/08/22 06:25:53;;;;;;;5.17;4.80;;;21.80;99.90;;;;;;5086234;28;20447;-66
2023/08/22 06:28:20;;;;;;;6.90;6.30;;;22.00;99.90;;;;;;5087476;28;20452;-66
2023/08/22 06:30:48;;;;;;;5.80;5.37;;;22.20;99.90;;;;;;5087718;28;20466;-66
2023/08/22 06:33:16;;;;;;;6.00;5.50;;;22.30;99.90;;;;;;5087771;28;20474;-66
2023/08/22 06:35:46;;;;;;;6.70;6.20;;;22.50;99.90;;;;;;5087585;28;20493;-66
2023/08/22 06:38:13;;;;;;;6.20;5.80;;;22.70;99.90;;;;;;5087008;28;20482;-66
2023/08/22 06:40:40;;;;;;;6.90;6.40;;;22.90;99.90;;;;;;5087023;28;20883;-66
2023/08/22 06:43:06;;;;;;;7.83;6.47;;;23.10;99.90;;;;;;5087622;28;20477;-66
2023/08/22 06:45:33;;;;;;;13.33;12.37;;;23.30;99.90;;;;;;5087700;28;20457;-66
2023/08/22 06:48:01;;;;;;;8.87;8.27;;;23.40;99.90;;;;;;5087365;28;20452;-66
2023/08/22 06:50:28;;;;;;;9.13;8.43;;;23.60;99.90;;;;;;5074522;28;20453;-66
2023/08/22 06:52:55;;;;;;;8.87;8.17;;;23.70;99.90;;;;;;5075185;28;20996;-66
2023/08/22 06:55:22;;;;;;;9.20;6.70;;;23.90;99.90;;;;;;5080596;28;20462;-66
2023/08/22 06:57:49;;;;;;;6.97;6.37;;;24.10;99.90;;;;;;5075861;28;21049;-66
2023/08/22 07:00:16;;;;;;;7.97;7.33;;;24.30;99.90;;;;;;5080312;28;20492;-66
2023/08/22 07:02:44;;;;;;;9.40;7.90;;;24.40;99.90;;;;;;5075770;28;20476;-66
2023/08/22 07:05:14;;;;;;;8.47;7.70;;;24.50;99.90;;;;;;5085883;28;20455;-66
2023/08/22 07:07:41;;;;;;;7.40;6.90;;;24.60;99.90;;;;;;5080264;28;20464;-67
2023/08/22 07:10:10;;;;;;;8.77;8.07;;;24.80;99.90;;;;;;5082139;28;20446;-66
2023/08/22 07:12:37;;;;;;;8.47;7.77;;;24.90;99.90;;;;;;5086259;28;21099;-66
2023/08/22 07:15:05;;;;;;;8.40;7.80;;;25.10;99.90;;;;;;5082426;28;20876;-66
2023/08/22 07:17:32;;;;;;;7.53;7.03;;;25.30;99.90;;;;;;5084291;28;20827;-66
2023/08/22 07:19:59;;;;;;;8.37;7.40;;;25.40;99.90;;;;;;5081499;28;20579;-66
2023/08/22 07:22:27;;;;;;;8.20;7.50;;;25.60;99.90;;;;;;5084776;28;20480;-66
2023/08/22 07:24:54;;;;;;;8.93;8.07;;;25.70;99.90;;;;;;5081529;28;20454;-67
2023/08/22 07:27:22;;;;;;;8.67;8.00;;;25.90;99.90;;;;;;5084706;28;20469;-67
2023/08/22 07:29:49;;;;;;;8.20;7.50;;;25.90;99.90;;;;;;5086616;28;20899;-67
2023/08/22 07:32:18;;;;;;;8.37;7.40;;;25.90;99.90;;;;;;5087263;28;20489;-66
2023/08/22 07:34:45;;;;;;;7.90;7.20;;;26.00;99.90;;;;;;5085353;28;20466;-67
2023/08/22 07:37:12;;;;;;;9.43;8.63;;;26.00;99.90;;;;;;5081195;28;21275;-66
2023/08/22 07:39:40;;;;;;;8.77;8.07;;;26.00;99.90;;;;;;5087561;28;20452;-67
2023/08/22 07:42:07;;;;;;;7.70;6.73;;;26.10;99.90;;;;;;5079905;28;20599;-66
2023/08/22 07:44:34;;;;;;;8.07;7.33;;;26.20;99.90;;;;;;5079494;28;20850;-66
2023/08/22 07:47:02;;;;;;;8.37;7.67;;;26.40;99.90;;;;;;5076078;28;20529;-66
2023/08/22 07:49:29;;;;;;;11.03;7.67;;;26.40;99.90;;;;;;5083133;28;20455;-66
2023/08/22 07:51:55;;;;;;;8.07;7.37;;;26.50;99.90;;;;;;5084000;28;20452;-66
2023/08/22 07:54:22;;;;;;;7.83;7.20;;;26.70;99.90;;;;;;5084328;28;20450;-66
2023/08/22 07:56:50;;;;;;;7.60;6.83;;;26.70;99.90;;;;;;5087156;28;20548;-67
2023/08/22 07:59:17;;;;;;;7.57;6.73;;;26.80;99.90;;;;;;5089926;28;20447;-67
2023/08/22 08:01:44;;;;;;;7.90;7.10;;;26.90;99.90;;;;;;5090159;28;21008;-67
2023/08/22 08:04:11;;;;;;;7.63;7.03;;;27.00;99.90;;;;;;5070861;28;20845;-67
2023/08/22 08:06:38;;;;;;;9.27;7.00;;;27.10;99.90;;;;;;5069439;28;20448;-66
2023/08/22 08:09:05;;;;;;;7.20;6.70;;;27.20;99.90;;;;;;5070269;28;20566;-66
2023/08/22 08:11:32;;;;;;;6.87;6.20;;;27.30;99.90;;;;;;5068819;28;20457;-66
2023/08/22 08:14:01;;;;;;;7.93;7.00;;;27.30;99.90;;;;;;5070122;28;20557;-66
2023/08/22 08:16:28;;;;;;;7.83;7.23;;;27.40;99.90;;;;;;5070575;28;20459;-67
2023/08/22 08:18:55;;;;;;;6.87;6.27;;;27.50;99.90;;;;;;5090081;28;20464;-66
2023/08/22 08:21:22;;;;;;;8.10;7.50;;;27.50;99.90;;;;;;5089948;28;20485;-66
2023/08/22 08:23:48;;;;;;;7.63;7.13;;;27.60;99.90;;;;;;5089731;28;20472;-67
2023/08/22 08:26:15;;;;;;;7.23;6.70;;;27.60;99.90;;;;;;5088890;28;20460;-67
2023/08/22 08:28:43;;;;;;;8.33;7.80;;;27.60;99.90;;;;;;5092582;28;21000;-66
2023/08/22 08:31:11;;;;;;;6.90;6.30;;;27.70;99.90;;;;;;5108990;28;20455;-67
2023/08/22 08:33:38;;;;;;;7.90;7.20;;;27.80;99.90;;;;;;5109315;28;20468;-67
2023/08/22 08:36:05;;;;;;;7.07;6.57;;;27.90;99.90;;;;;;5096885;28;20480;-67
2023/08/22 08:38:32;;;;;;;8.67;7.90;;;28.00;99.90;;;;;;5088634;28;20453;-66
2023/08/22 08:41:03;;;;;;;6.97;6.47;;;28.00;99.90;;;;;;5086771;28;21005;-66
2023/08/22 08:43:32;;;;;;;7.60;7.10;;;28.00;99.90;;;;;;5077688;28;20481;-67
2023/08/22 08:45:59;;;;;;;8.00;7.20;;;28.10;99.90;;;;;;5088223;28;20612;-67
2023/08/22 08:48:29;;;;;;;7.23;6.70;;;28.10;99.90;;;;;;5088651;28;21013;-68
2023/08/22 08:50:57;;;;;;;8.07;7.47;;;28.20;99.90;;;;;;5086454;28;20457;-67
2023/08/22 08:53:24;;;;;;;6.80;6.30;;;28.30;99.90;;;;;;5087184;28;21083;-67
2023/08/22 08:55:51;;;;;;;6.70;6.20;;;28.40;99.90;;;;;;5087723;28;20519;-66
2023/08/22 08:58:18;;;;;;;7.17;6.67;;;28.50;99.90;;;;;;5085575;28;20450;-67
2023/08/22 09:00:46;;;;;;;6.80;6.17;;;28.60;99.90;;;;;;5087719;28;20488;-67
2023/08/22 09:03:13;;;;;;;6.77;6.20;;;28.60;99.90;;;;;;5087551;28;20466;-67
2023/08/22 09:05:41;;;;;;;9.13;7.10;;;28.70;99.90;;;;;;5088425;28;20539;-67
2023/08/22 09:08:18;;;;;;;6.40;5.93;;;28.80;99.90;;;;;;5087421;28;21251;-67
2023/08/22 09:10:50;;;;;;;6.80;6.40;;;28.90;99.90;;;;;;5088427;28;20453;-67
2023/08/22 09:13:24;;;;;;;6.93;6.43;;;29.00;99.90;;;;;;5087362;28;21040;-66
2023/08/22 09:15:51;;;;;;;8.30;6.63;;;29.10;99.90;;;;;;5087523;28;20455;-68
2023/08/22 09:18:18;;;;;;;7.20;6.50;;;29.20;99.40;;;;;;5087571;28;20538;-68
2023/08/22 09:20:46;;;;;;;6.90;6.40;;;29.20;99.30;;;;;;5088036;28;20490;-67
2023/08/22 09:23:28;;;;;;;7.40;6.80;;;29.30;98.80;;;;;;5087719;28;20473;-68
2023/08/22 09:25:55;;;;;;;6.67;6.07;;;29.40;98.80;;;;;;5087693;28;20448;-68
2023/08/22 09:28:22;;;;;;;8.63;6.37;;;29.40;98.00;;;;;;5087111;28;20927;-68
2023/08/22 09:30:49;;;;;;;8.40;7.60;;;29.40;97.60;;;;;;5087348;28;20546;-68
2023/08/22 09:33:16;;;;;;;6.70;6.20;;;29.50;98.20;;;;;;5087080;28;21049;-67
2023/08/22 09:35:43;;;;;;;7.33;6.70;;;29.60;98.20;;;;;;5087871;28;20538;-67
2023/08/22 09:38:12;;;;;;;8.40;6.43;;;29.60;98.40;;;;;;5087237;28;20533;-67
2023/08/22 09:40:50;;;;;;;6.40;5.80;;;29.70;98.00;;;;;;5087258;28;20542;-66
2023/08/22 09:43:17;;;;;;;6.33;5.90;;;29.70;97.00;;;;;;5087143;28;20928;-67
2023/08/22 09:45:44;;;;;;;7.00;6.03;;;29.80;97.50;;;;;;5086998;28;20525;-66
2023/08/22 09:48:16;;;;;;;6.07;5.67;;;29.80;97.00;;;;;;5086848;28;20826;-67
2023/08/22 09:50:45;;;;;;;6.77;5.73;;;29.80;97.00;;;;;;5087204;28;20480;-67
2023/08/22 09:53:14;;;;;;;5.73;5.33;;;29.80;96.40;;;;;;5086971;28;20470;-67
2023/08/22 09:55:43;;;;;;;6.60;6.10;;;29.80;96.40;;;;;;5087470;28;20911;-68
2023/08/22 09:58:11;;;;;;;6.30;5.87;;;29.80;96.30;;;;;;5099861;28;20834;-67
2023/08/22 10:00:38;;;;;;;6.23;5.50;;;29.90;96.20;;;;;;5107412;28;20455;-67
2023/08/22 10:03:06;;;;;;;6.40;5.80;;;30.00;95.20;;;;;;5106905;28;20462;-67
2023/08/22 10:05:34;;;;;;;6.10;5.63;;;30.00;95.70;;;;;;5107407;28;20533;-67
2023/08/22 10:08:01;;;;;;;5.50;4.97;;;30.00;95.40;;;;;;5093921;28;20533;-67
2023/08/22 10:10:30;;;;;;;6.93;6.23;;;30.00;96.10;;;;;;5087346;28;20529;-68
2023/08/22 10:12:57;;;;;;;6.47;5.87;;;30.10;95.70;;;;;;5086545;28;20985;-67
2023/08/22 10:15:24;;;;;;;8.43;5.57;;;30.10;95.20;;;;;;5087010;28;20453;-67
2023/08/22 10:17:51;;;;;;;6.60;6.00;;;30.10;95.40;;;;;;5086207;28;20454;-67
2023/08/22 10:20:18;;;;;;;8.37;5.63;;;30.20;95.60;;;;;;5084093;28;20453;-67
2023/08/22 10:22:45;;;;;;;6.10;5.70;;;30.30;95.80;;;;;;5085800;28;20576;-68
2023/08/22 10:25:12;;;;;;;6.30;5.90;;;30.40;95.50;;;;;;5086762;28;20558;-67
2023/08/22 10:27:46;;;;;;;6.43;5.83;;;30.50;95.30;;;;;;5086302;28;20529;-67
2023/08/22 10:30:21;;;;;;;5.83;5.40;;;30.60;94.10;;;;;;5086871;28;20542;-68
2023/08/22 10:33:05;;;;;;;6.73;6.23;;;30.60;94.50;;;;;;5086511;28;20523;-68
2023/08/22 10:35:32;;;;;;;5.70;5.40;;;30.70;93.70;;;;;;5086900;28;20455;-67
2023/08/22 10:37:58;;;;;;;6.33;5.83;;;30.70;94.40;;;;;;5086172;28;20445;-67
2023/08/22 10:40:28;;;;;;;5.47;5.07;;;30.70;93.50;;;;;;5087561;28;20845;-67
2023/08/22 10:43:13;;;;;;;6.40;5.77;;;30.80;93.20;;;;;;5090791;28;20499;-67
2023/08/22 10:45:42;;;;;;;5.33;4.87;;;30.80;93.50;;;;;;5090417;28;20449;-67
2023/08/22 10:48:11;;;;;;;5.50;5.10;;;30.80;93.00;;;;;;5090182;28;20525;-67
2023/08/22 10:50:41;;;;;;;6.03;5.43;;;30.90;93.50;;;;;;5091086;28;20445;-67
2023/08/22 10:53:25;;;;;;;5.10;4.70;;;30.90;92.80;;;;;;5090583;28;20470;-67
2023/08/22 10:55:52;;;;;;;5.23;4.77;;;30.90;92.70;;;;;;5089968;28;20455;-66
2023/08/22 10:58:38;;;;;;;5.60;5.13;;;30.90;92.70;;;;;;5089163;28;21201;-66
2023/08/22 11:01:10;;;;;;;6.40;5.80;;;31.00;92.60;;;;;;5090666;28;21226;-67
2023/08/22 11:03:37;;;;;;;5.87;5.40;;;31.10;93.00;;;;;;5090364;28;21039;-67
2023/08/22 11:06:12;;;;;;;6.13;5.63;;;31.10;93.10;;;;;;5079494;28;20893;-67
2023/08/22 11:08:41;;;;;;;5.30;4.90;;;31.20;92.90;;;;;;5090675;28;20449;-66
2023/08/22 11:11:08;;;;;;;6.10;5.40;;;31.30;92.30;;;;;;5090413;28;20445;-66
2023/08/22 11:13:38;;;;;;;5.63;5.13;;;31.30;91.80;;;;;;5090432;28;20464;-67
2023/08/22 11:16:10;;;;;;;6.13;5.53;;;31.30;91.70;;;;;;5072824;28;20447;-66
2023/08/22 11:18:38;;;;;;;6.10;5.50;;;31.30;91.10;;;;;;5090481;28;20477;-67
2023/08/22 11:21:04;;;;;;;6.60;6.20;;;31.30;91.10;;;;;;5090338;28;20452;-67
2023/08/22 11:23:32;;;;;;;5.40;5.10;;;31.30;91.50;;;;;;5089995;28;20470;-66
2023/08/22 11:26:01;;;;;;;4.90;4.60;;;31.30;91.40;;;;;;5089205;28;20501;-66
2023/08/22 11:28:32;;;;;;;5.77;5.47;;;31.30;91.10;;;;;;5090070;28;20450;-66
2023/08/22 11:31:01;;;;;;;5.60;5.10;;;31.40;91.20;;;;;;5085723;28;20473;-67
2023/08/22 11:33:35;;;;;;;5.53;5.03;;;31.40;91.40;;;;;;5090139;28;20472;-67
2023/08/22 11:36:03;;;;;;;5.77;5.37;;;31.50;91.40;;;;;;5089299;28;20447;-66
2023/08/22 11:38:33;;;;;;;5.77;5.40;;;31.60;91.20;;;;;;5090381;28;20460;-66
2023/08/22 11:41:00;;;;;;;6.40;5.87;;;31.60;91.20;;;;;;5090075;28;21041;-66
2023/08/22 11:43:27;;;;;;;5.57;5.17;;;31.80;91.00;;;;;;5085273;28;20931;-66
2023/08/22 11:45:54;;;;;;;6.33;5.83;;;31.80;90.50;;;;;;5088278;28;20532;-66
2023/08/22 11:48:24;;;;;;;6.60;6.10;;;31.90;90.80;;;;;;5089646;28;21138;-66
2023/08/22 11:50:52;;;;;;;5.83;5.43;;;32.00;90.80;;;;;;5088613;28;20491;-67
2023/08/22 11:53:18;;;;;;;6.80;6.10;;;32.00;91.20;;;;;;5089573;28;20569;-66
2023/08/22 11:55:49;;;;;;;5.97;5.43;;;32.10;90.60;;;;;;5088552;28;20455;-67
2023/08/22 11:58:16;;;;;;;6.10;5.70;;;32.10;89.60;;;;;;5089686;28;20442;-66
2023/08/22 12:00:43;;;;;;;6.40;5.90;;;32.20;90.80;;;;;;5089705;28;20969;-67
2023/08/22 12:03:10;;;;;;;6.20;5.80;;;32.30;90.10;;;;;;5088717;28;20570;-66
2023/08/22 12:05:40;;;;;;;5.93;5.50;;;32.30;90.10;;;;;;5088957;28;20948;-66
2023/08/22 12:08:21;;;;;;;7.00;6.50;;;32.40;90.90;;;;;;5089010;28;20451;-66
2023/08/22 12:10:49;;;;;;;5.80;5.40;;;32.50;90.10;;;;;;5089225;28;20453;-66
2023/08/22 12:13:17;;;;;;;6.30;5.83;;;32.70;90.00;;;;;;5088641;28;20920;-67
2023/08/22 12:15:45;;;;;;;6.43;5.93;;;32.70;89.00;;;;;;5088762;28;20526;-67
2023/08/22 12:18:12;;;;;;;6.37;5.97;;;32.80;89.60;;;;;;5088615;28;20442;-66
2023/08/22 12:20:42;;;;;;;5.63;5.10;;;32.80;88.30;;;;;;5088625;28;20499;-66
2023/08/22 12:23:09;;;;;;;6.07;5.17;;;32.90;88.30;;;;;;5088878;28;20566;-66
2023/08/22 12:25:37;;;;;;;6.70;5.90;;;32.90;86.70;;;;;;5089051;28;20446;-67
2023/08/22 12:28:05;;;;;;;6.57;5.97;;;33.00;86.60;;;;;;5088540;28;20438;-66
2023/08/22 12:30:33;;;;;;;6.13;5.63;;;33.00;86.70;;;;;;5089034;28;20461;-66
2023/08/22 12:33:02;;;;;;;6.20;5.63;;;33.10;85.70;;;;;;5088675;28;20466;-67
2023/08/22 12:35:29;;;;;;;5.63;5.13;;;33.20;83.90;;;;;;5089075;28;20510;-66
2023/08/22 12:37:57;;;;;;;5.40;5.10;;;33.20;83.10;;;;;;5088039;28;20907;-67
2023/08/22 12:40:24;;;;;;;5.20;4.80;;;33.30;82.70;;;;;;5087985;28;20450;-67
2023/08/22 12:42:51;;;;;;;4.63;4.23;;;33.30;80.10;;;;;;5088513;28;20606;-67
2023/08/22 12:45:18;;;;;;;4.77;4.37;;;33.40;77.20;;;;;;5072888;28;20889;-66
2023/08/22 12:47:45;;;;;;;4.50;4.20;;;33.50;78.40;;;;;;5084410;28;20834;-67
2023/08/22 12:50:12;;;;;;;5.50;5.00;;;33.70;75.70;;;;;;5081856;28;20648;-66